createdAt,value
2022-08-05T00:04:08.289Z,23.14
2022-08-05T00:10:27.160Z,23.11
2022-08-05T00:16:52.170Z,23.09
2022-08-05T00:23:12.697Z,23.07
2022-08-05T00:29:37.888Z,22.97
2022-08-05T00:36:15.299Z,22.88
2022-08-05T00:42:31.496Z,22.8
2022-08-05T00:48:34.160Z,22.73
2022-08-05T00:54:57.145Z,22.62
2022-08-05T01:01:24.882Z,22.58
2022-08-05T01:07:41.532Z,22.62
2022-08-05T01:14:00.248Z,22.68
2022-08-05T01:20:23.147Z,22.66
2022-08-05T01:26:43.145Z,22.55
2022-08-05T01:33:08.183Z,22.54
2022-08-05T01:39:46.943Z,22.52
2022-08-05T01:45:55.283Z,22.49
2022-08-05T01:52:12.483Z,22.36
2022-08-05T01:58:41.135Z,22.15
2022-08-05T02:04:52.140Z,22.05
2022-08-05T02:11:15.167Z,21.93
2022-08-05T02:18:28.995Z,21.77
2022-08-05T02:23:58.175Z,21.69
2022-08-05T02:30:18.140Z,21.61
2022-08-05T02:36:41.174Z,21.51
2022-08-05T02:43:01.144Z,21.23
2022-08-05T02:49:24.171Z,21.02
2022-08-05T02:55:52.320Z,20.84
2022-08-05T03:02:07.171Z,20.72
2022-08-05T03:08:29.714Z,20.67
2022-08-05T03:14:50.135Z,20.81
2022-08-05T03:21:10.161Z,20.87
2022-08-05T03:27:39.456Z,20.61
2022-08-05T03:33:53.289Z,20.44
2022-08-05T03:40:24.562Z,20.44
2022-08-05T03:46:36.203Z,20.32
2022-08-05T03:54:58.804Z,20.11
2022-08-05T04:09:26.227Z,19.79
2022-08-05T04:15:52.970Z,19.72
2022-08-05T04:22:10.452Z,19.66
2022-08-05T04:28:28.591Z,19.66
2022-08-05T04:34:50.176Z,19.72
2022-08-05T04:41:10.245Z,19.76
2022-08-05T04:47:38.516Z,19.75
2022-08-05T04:53:53.157Z,19.76
2022-08-05T05:00:16.155Z,19.78
2022-08-05T05:06:39.735Z,19.89
2022-08-05T05:12:59.174Z,19.84
2022-08-05T05:19:23.509Z,19.84
2022-08-05T05:25:42.178Z,19.85
2022-08-05T05:32:02.171Z,19.79
2022-08-05T05:38:26.974Z,19.8
2022-08-05T05:44:46.030Z,19.74
2022-08-05T05:51:15.375Z,19.78
2022-08-05T05:57:42.662Z,19.79
2022-08-05T06:03:54.272Z,19.95
2022-08-05T06:10:11.148Z,20.21
2022-08-05T06:16:37.033Z,20.5
2022-08-05T06:22:54.150Z,20.8
2022-08-05T06:29:26.518Z,21.1
2022-08-05T06:36:04.320Z,21.36
2022-08-05T06:42:00.152Z,21.42
2022-08-05T06:48:47.529Z,21.25
2022-08-05T06:54:43.147Z,21.21
2022-08-05T07:01:03.218Z,21.12
2022-08-05T07:07:35.319Z,21.03
2022-08-05T07:13:57.423Z,21.03
2022-08-05T07:20:39.182Z,21.04
2022-08-05T07:26:29.143Z,20.86
2022-08-05T07:32:53.360Z,20.69
2022-08-05T07:39:24.559Z,20.59
2022-08-05T07:45:57.928Z,20.5
2022-08-05T07:51:55.323Z,20.52
2022-08-05T07:58:54.554Z,20.75
2022-08-05T08:04:38.351Z,20.91
2022-08-05T08:11:01.166Z,21.12
2022-08-05T08:17:21.417Z,21.09
2022-08-05T08:24:00.770Z,21.17
2022-08-05T08:30:20.558Z,21.11
2022-08-05T08:36:37.298Z,21.21
2022-08-05T08:42:50.838Z,21.3
2022-08-05T08:50:05.598Z,21.35
2022-08-05T08:55:32.366Z,21.56
2022-08-05T09:01:57.154Z,21.47
2022-08-05T09:08:13.182Z,21.25
2022-08-05T09:14:55.078Z,21.22
2022-08-05T09:20:56.196Z,21.18
2022-08-05T09:28:03.335Z,21.07
2022-08-05T09:33:39.147Z,21.15
2022-08-05T09:40:02.282Z,21.16
2022-08-05T09:56:28.057Z,21.29
2022-08-05T10:02:48.178Z,21.16
2022-08-05T10:09:22.589Z,20.98
2022-08-05T10:15:34.228Z,20.82
2022-08-05T10:21:54.160Z,20.61
2022-08-05T10:28:17.423Z,20.54
2022-08-05T10:34:37.282Z,20.41
2022-08-05T10:40:57.771Z,20.14
2022-08-05T10:47:26.370Z,19.8
2022-08-05T10:53:42.502Z,19.74
2022-08-05T11:00:08.457Z,19.54
2022-08-05T11:06:23.181Z,19.44
2022-08-05T11:12:50.593Z,19.28
2022-08-05T11:20:11.621Z,19.11
2022-08-05T11:26:03.861Z,19.11
2022-08-05T11:31:54.956Z,19.4
2022-08-05T11:38:27.133Z,19.56
2022-08-05T11:44:41.023Z,19.92
2022-08-05T11:50:55.163Z,20.02
2022-08-05T11:57:24.692Z,20.17
2022-08-05T12:03:38.158Z,20.43
2022-08-05T12:10:00.090Z,21.1
2022-08-05T12:16:25.353Z,21.79
2022-08-05T12:22:41.168Z,22.16
2022-08-05T12:29:04.174Z,22.44
2022-08-05T12:35:24.147Z,22.94
2022-08-05T12:41:47.155Z,22.78
2022-08-05T12:48:17.117Z,23.3
2022-08-05T12:54:30.151Z,23.7
2022-08-05T13:02:04.585Z,24.4
2022-08-05T13:07:15.997Z,25.28
2022-08-05T13:14:04.527Z,25.72
2022-08-05T13:19:56.506Z,25.78
2022-08-05T13:26:16.152Z,25.32
2022-08-05T13:32:42.141Z,25.58
2022-08-05T13:38:59.244Z,26.02
2022-08-05T13:45:22.147Z,25.82
2022-08-05T13:51:46.004Z,25.96
2022-08-05T13:58:05.155Z,25.72
2022-08-05T14:04:26.385Z,25.34
2022-08-05T14:10:48.156Z,25.67
2022-08-05T14:17:08.357Z,26
2022-08-05T14:23:32.903Z,25.97
2022-08-05T14:29:51.327Z,26.24
2022-08-05T14:36:14.150Z,26.92
2022-08-05T14:42:34.571Z,26.65
2022-08-05T14:48:57.217Z,26.04
2022-08-05T14:55:17.185Z,25.71
2022-08-05T15:01:47.042Z,25.09
2022-08-05T15:08:06.769Z,24.6
2022-08-05T15:14:34.406Z,24.3
2022-08-05T15:20:43.146Z,24.08
2022-08-05T15:36:54.063Z,23.89
2022-08-05T15:43:19.951Z,23.69
2022-08-05T15:49:42.084Z,23.54
2022-08-05T15:56:03.295Z,23.54
2022-08-05T16:02:25.350Z,23.53
2022-08-05T16:08:40.189Z,23.59
2022-08-05T16:15:03.146Z,23.65
2022-08-05T16:21:59.190Z,23.6
2022-08-05T16:27:47.493Z,23.43
2022-08-05T16:34:06.144Z,23.34
2022-08-05T16:40:29.620Z,23.31
2022-08-05T16:46:55.570Z,23.32
2022-08-05T16:53:22.708Z,23.32
2022-08-05T16:59:32.178Z,23.22
2022-08-05T17:05:59.376Z,22.98
2022-08-05T17:12:16.190Z,22.87
2022-08-05T17:18:38.154Z,22.76
2022-08-05T17:24:58.739Z,22.71
2022-08-05T17:31:24.263Z,22.67
2022-08-05T17:37:45.001Z,22.66
2022-08-05T17:44:04.193Z,22.62
2022-08-05T17:50:27.990Z,22.56
2022-08-05T17:56:49.054Z,22.53
2022-08-05T18:03:07.961Z,22.46
2022-08-05T18:09:59.339Z,22.33
2022-08-05T18:15:50.200Z,22.23
2022-08-05T18:22:17.923Z,22.14
2022-08-05T18:28:33.154Z,22.04
2022-08-05T18:34:56.183Z,21.99
2022-08-05T18:41:54.449Z,21.87
2022-08-05T18:47:39.185Z,21.63
2022-08-05T18:53:59.149Z,21.46
2022-08-05T19:00:27.331Z,21.35
2022-08-05T19:06:44.561Z,21.26
2022-08-05T19:13:05.151Z,21.17
2022-08-05T19:19:25.175Z,21.03
2022-08-05T19:25:48.143Z,20.85
2022-08-05T19:32:08.745Z,20.71
2022-08-05T19:38:31.173Z,20.5
2022-08-05T19:44:51.144Z,20.33
2022-08-05T19:51:31.270Z,20.12
2022-08-05T19:57:46.590Z,19.87
2022-08-05T20:03:57.162Z,19.62
2022-08-05T20:10:17.246Z,19.46
2022-08-05T20:16:40.135Z,19.3
2022-08-05T20:23:00.175Z,19.1
2022-08-05T20:29:26.416Z,18.86
2022-08-05T20:35:45.458Z,18.7
2022-08-05T20:42:06.198Z,18.59
2022-08-05T20:48:26.144Z,18.5
2022-08-05T20:55:00.181Z,18.39
2022-08-05T21:01:09.229Z,18.26
2022-08-05T21:24:32.164Z,18.09
2022-08-05T21:30:55.146Z,17.94
2022-08-05T21:37:15.170Z,17.83
2022-08-05T21:43:41.613Z,17.8
2022-08-05T21:50:00.558Z,17.83
2022-08-05T21:56:21.207Z,17.8
2022-08-05T22:20:35.664Z,17.4
2022-08-05T22:26:55.177Z,17.3
2022-08-05T22:33:18.167Z,17.26
2022-08-05T22:39:38.256Z,17.19
2022-08-05T22:46:03.486Z,17.19
2022-08-05T22:52:22.732Z,17.16
2022-08-05T22:58:44.160Z,17.06
2022-08-05T23:05:04.714Z,17
2022-08-05T23:11:27.187Z,16.95
2022-08-05T23:18:00.025Z,16.93
2022-08-05T23:24:11.244Z,16.86
2022-08-05T23:30:31.262Z,16.73
2022-08-05T23:36:53.176Z,16.61
2022-08-05T23:43:24.643Z,16.51
2022-08-05T23:49:36.430Z,16.46
2022-08-05T23:55:56.219Z,16.39
